Time;durP1;ratioP1;P1;durP2;ratioP2;P2;SDS_P1;SDS_P2;PMS_P1;PMS_P2;Temp;Humidity;BMP_temperature;BMP_pressure;BME280_temperature;BME280_humidity;BME280_pressure;Samples;Min_cycle;Max_cycle;Signal;HPM_P1;HPM_P2
2022/03/11 00:01:07;;;;;;;1999.90;999.90;;;10.80;70.80;;;;;;4963663;28;20050;-91
2022/03/11 00:03:34;;;;;;;1999.90;999.90;;;10.80;70.90;;;;;;4972725;28;20027;-90
2022/03/11 00:06:00;;;;;;;1999.90;999.90;;;10.80;71.00;;;;;;4956160;28;20476;-91
2022/03/11 00:08:26;;;;;;;1999.90;999.90;;;10.80;71.10;;;;;;4970691;28;20035;-91
2022/03/11 00:10:52;;;;;;;1999.90;999.90;;;10.80;71.10;;;;;;4956880;28;20042;-91
2022/03/11 00:13:18;;;;;;;1999.90;999.90;;;10.80;71.10;;;;;;4972917;28;20031;-91
2022/03/11 00:15:44;;;;;;;1999.90;999.90;;;10.80;71.40;;;;;;4957382;28;20035;-91
2022/03/11 00:18:11;;;;;;;1999.90;999.90;;;10.90;71.50;;;;;;4970221;28;20027;-91
2022/03/11 00:20:37;;;;;;;1999.90;999.90;;;10.90;71.50;;;;;;4956421;28;20042;-91
2022/03/11 00:23:03;;;;;;;1999.90;999.90;;;10.90;71.50;;;;;;4955174;28;20051;-91
2022/03/11 00:25:32;;;;;;;1999.90;999.90;;;10.90;71.50;;;;;;4957340;28;20047;-91
2022/03/11 00:27:59;;;;;;;1999.90;999.90;;;10.80;71.40;;;;;;4972007;28;20054;-88
2022/03/11 00:30:27;;;;;;;1999.90;999.90;;;10.90;71.60;;;;;;4954932;28;20039;-91
2022/03/11 00:32:53;;;;;;;1999.90;999.90;;;10.90;71.60;;;;;;4970849;28;20023;-91
2022/03/11 00:35:19;;;;;;;1999.90;999.90;;;10.90;71.70;;;;;;4971324;28;20035;-91
2022/03/11 00:37:45;;;;;;;1999.90;999.90;;;10.90;71.80;;;;;;4972402;28;20030;-90
2022/03/11 00:40:13;;;;;;;1999.90;999.90;;;10.90;71.70;;;;;;4972739;28;20043;-91
2022/03/11 00:42:40;;;;;;;1999.90;999.90;;;10.90;71.60;;;;;;4974012;28;20041;-90
2022/03/11 00:45:06;;;;;;;1999.90;999.90;;;10.90;71.70;;;;;;4956127;28;20039;-91
2022/03/11 00:47:32;;;;;;;1999.90;999.90;;;10.90;71.80;;;;;;4971530;28;20046;-91
2022/03/11 00:49:58;;;;;;;1999.90;999.90;;;10.80;71.90;;;;;;4955693;28;20396;-89
2022/03/11 00:52:24;;;;;;;1999.90;999.90;;;10.80;71.90;;;;;;4957522;28;20488;-90
2022/03/11 00:54:50;;;;;;;1999.90;999.90;;;10.80;72.20;;;;;;4970220;28;20090;-92
2022/03/11 00:57:16;;;;;;;1999.90;999.90;;;10.80;73.20;;;;;;4954316;28;20027;-90
2022/03/11 00:59:43;;;;;;;1999.90;999.90;;;10.70;72.60;;;;;;4965852;28;20046;-91
2022/03/11 01:02:09;;;;;;;1999.90;999.90;;;10.70;72.70;;;;;;4952571;28;20104;-90
2022/03/11 01:04:35;;;;;;;1999.90;999.90;;;10.70;72.80;;;;;;4973190;28;20102;-92
2022/03/11 01:07:01;;;;;;;1999.90;999.90;;;10.70;72.80;;;;;;4970953;28;20492;-91
2022/03/11 01:09:27;;;;;;;1999.90;999.90;;;10.70;72.70;;;;;;4970780;28;20027;-91
2022/03/11 01:11:53;;;;;;;1999.90;999.90;;;10.80;72.70;;;;;;4956953;28;20042;-91
2022/03/11 01:14:19;;;;;;;1999.90;999.90;;;10.70;72.70;;;;;;4970587;28;20476;-91
2022/03/11 01:16:46;;;;;;;1999.90;999.90;;;10.70;72.60;;;;;;4954866;28;20035;-91
2022/03/11 01:19:13;;;;;;;1999.90;999.90;;;10.80;72.70;;;;;;4954622;28;20389;-91
2022/03/11 01:21:39;;;;;;;1999.90;999.90;;;10.80;72.60;;;;;;4970785;28;20023;-91
2022/03/11 01:24:06;;;;;;;1999.90;999.90;;;10.80;72.60;;;;;;4971851;28;20030;-92
2022/03/11 01:26:32;;;;;;;1999.90;999.90;;;10.70;72.70;;;;;;4953218;28;20034;-91
2022/03/11 01:28:58;;;;;;;1999.90;999.90;;;10.70;72.80;;;;;;4955093;28;20058;-91
2022/03/11 01:31:24;;;;;;;1999.90;999.90;;;10.70;72.90;;;;;;4940749;28;20036;-91
2022/03/11 01:33:50;;;;;;;1999.90;999.90;;;10.70;72.90;;;;;;4987604;28;20027;-91
2022/03/11 01:36:18;;;;;;;1999.90;999.90;;;10.70;72.90;;;;;;4970982;28;20602;-90
2022/03/11 01:38:44;;;;;;;1999.90;999.90;;;10.70;72.90;;;;;;4972131;28;20427;-91
2022/03/11 01:41:10;;;;;;;1999.90;999.90;;;10.70;72.90;;;;;;4955159;28;20047;-91
2022/03/11 01:44:09;;;;;;;1999.90;999.90;;;10.80;72.90;;;;;;4957060;28;20038;-91
2022/03/11 01:46:36;;;;;;;1999.90;999.90;;;10.80;73.00;;;;;;4968103;28;20039;-92
2022/03/11 01:49:04;;;;;;;1999.90;999.90;;;10.80;73.00;;;;;;4973646;28;20053;-90
2022/03/11 01:51:33;;;;;;;1999.90;999.90;;;10.80;73.00;;;;;;4957728;28;20027;-90
2022/03/11 01:53:59;;;;;;;1999.90;999.90;;;10.80;73.10;;;;;;4959092;28;20130;-91
2022/03/11 01:56:25;;;;;;;1999.90;999.90;;;10.80;73.10;;;;;;4970176;28;20404;-91
2022/03/11 01:58:53;;;;;;;1999.90;999.90;;;10.80;73.10;;;;;;4958821;28;20050;-90
2022/03/11 02:01:19;;;;;;;1999.90;999.90;;;10.90;73.10;;;;;;4954781;29;20550;-90
2022/03/11 02:03:45;;;;;;;1999.90;999.90;;;10.90;73.00;;;;;;4955053;28;20046;-91
2022/03/11 02:06:13;;;;;;;1999.90;999.90;;;10.90;72.90;;;;;;4972372;28;20058;-91
2022/03/11 02:08:39;;;;;;;1999.90;999.90;;;10.90;72.90;;;;;;4942723;28;20399;-90
2022/03/11 02:11:06;;;;;;;1999.90;999.90;;;11.00;72.90;;;;;;4953479;28;20383;-90
2022/03/11 02:13:54;;;;;;;1999.90;999.90;;;11.00;72.90;;;;;;4955805;29;20104;-90
2022/03/11 02:16:29;;;;;;;1999.90;999.90;;;11.00;72.90;;;;;;4961805;28;20046;-91
2022/03/11 02:18:55;;;;;;;1999.90;999.90;;;11.00;72.80;;;;;;4960602;28;20522;-92
2022/03/11 02:21:22;;;;;;;1999.90;999.90;;;11.00;72.80;;;;;;4956638;28;20026;-92
2022/03/11 02:23:50;;;;;;;1999.90;999.90;;;11.10;72.80;;;;;;4942800;28;20043;-90
2022/03/11 02:26:17;;;;;;;1999.90;999.90;;;11.10;72.70;;;;;;4956589;28;20038;-91
2022/03/11 02:28:46;;;;;;;1999.90;999.90;;;11.10;72.60;;;;;;4957956;28;20042;-90
2022/03/11 02:31:12;;;;;;;1999.90;999.90;;;11.10;72.60;;;;;;4935179;28;20031;-92
2022/03/11 02:33:38;;;;;;;1999.90;999.90;;;11.10;72.60;;;;;;4934306;29;20046;-90
2022/03/11 02:36:05;;;;;;;1999.90;999.90;;;11.10;72.70;;;;;;4947736;28;20031;-91
2022/03/11 02:38:31;;;;;;;1999.90;999.90;;;11.10;72.90;;;;;;4972671;28;20420;-92
2022/03/11 02:40:57;;;;;;;1999.90;999.90;;;11.10;73.10;;;;;;4972146;28;22627;-91
2022/03/11 02:43:24;;;;;;;1999.90;999.90;;;11.10;73.20;;;;;;4958428;28;20047;-91
2022/03/11 02:45:50;;;;;;;1999.90;999.90;;;11.10;73.20;;;;;;4957612;28;20381;-91
2022/03/11 02:48:16;;;;;;;1999.90;999.90;;;11.10;73.20;;;;;;4973405;28;20043;-92
2022/03/11 02:50:42;;;;;;;1999.90;999.90;;;11.10;73.30;;;;;;4973620;28;20022;-91
2022/03/11 02:53:08;;;;;;;1999.90;999.90;;;11.10;73.30;;;;;;4973176;28;20051;-92
2022/03/11 02:55:35;;;;;;;1999.90;999.90;;;11.10;73.50;;;;;;4958555;28;20026;-91
2022/03/11 02:58:01;;;;;;;1999.90;999.90;;;11.10;73.70;;;;;;4956515;28;20031;-91
2022/03/11 03:00:27;;;;;;;1999.90;999.90;;;11.10;73.70;;;;;;4970566;28;20111;-91
2022/03/11 03:02:53;;;;;;;1999.90;999.90;;;11.00;73.80;;;;;;4971144;28;20031;-90
2022/03/11 03:05:19;;;;;;;1999.90;999.90;;;11.00;73.80;;;;;;4953157;28;20026;-91
2022/03/11 03:07:45;;;;;;;1999.90;999.90;;;11.00;74.00;;;;;;4969481;28;20058;-91
2022/03/11 03:10:11;;;;;;;1999.90;999.90;;;11.00;74.10;;;;;;4957419;28;20495;-90
2022/03/11 03:12:40;;;;;;;1505.65;755.38;;;10.90;74.10;;;;;;4940072;28;20071;-91
2022/03/11 03:15:07;;;;;;;1505.38;755.13;;;11.00;74.20;;;;;;4969909;28;20041;-92
2022/03/11 03:17:34;;;;;;;1999.90;999.90;;;11.00;74.10;;;;;;4972005;28;20388;-92
2022/03/11 03:20:00;;;;;;;1999.90;999.90;;;11.00;74.10;;;;;;4938031;28;20054;-90
2022/03/11 03:22:26;;;;;;;1999.90;999.90;;;11.00;74.20;;;;;;4971524;28;20039;-92
2022/03/11 03:24:53;;;;;;;1505.30;755.05;;;11.00;74.30;;;;;;4972641;28;20034;-91
2022/03/11 03:27:19;;;;;;;1505.50;755.25;;;11.00;74.40;;;;;;4954079;28;20047;-91
2022/03/11 03:29:45;;;;;;;22.73;21.63;;;11.00;74.40;;;;;;4953428;28;20045;-91
2022/03/11 03:32:11;;;;;;;23.15;22.08;;;10.90;74.30;;;;;;4968861;28;20050;-91
2022/03/11 03:34:38;;;;;;;21.92;20.92;;;11.00;74.40;;;;;;4974151;28;20038;-91
2022/03/11 03:37:07;;;;;;;1999.90;999.90;;;11.00;74.50;;;;;;4970490;28;20077;-91
2022/03/11 03:39:34;;;;;;;21.38;20.38;;;11.00;74.50;;;;;;4971769;28;20057;-91
2022/03/11 03:42:00;;;;;;;22.33;21.33;;;11.00;74.50;;;;;;4969785;28;20054;-91
2022/03/11 03:44:26;;;;;;;21.80;20.70;;;11.00;74.50;;;;;;4971751;28;20046;-90
2022/03/11 03:46:52;;;;;;;22.17;21.17;;;11.00;74.50;;;;;;4971594;28;20515;-90
2022/03/11 03:49:18;;;;;;;21.70;20.70;;;11.00;74.50;;;;;;4957091;28;20472;-89
2022/03/11 03:51:44;;;;;;;22.90;21.80;;;11.10;74.60;;;;;;4968409;28;20026;-91
2022/03/11 03:54:11;;;;;;;1999.90;999.90;;;11.00;74.40;;;;;;4970772;28;20037;-90
2022/03/11 03:56:38;;;;;;;21.27;20.27;;;11.00;74.50;;;;;;4956911;28;20031;-92
2022/03/11 03:59:07;;;;;;;21.80;20.80;;;11.00;74.50;;;;;;4971493;28;20035;-88
2022/03/11 04:01:41;;;;;;;22.83;21.73;;;11.00;74.60;;;;;;4952688;28;20038;-87
2022/03/11 04:04:08;;;;;;;22.45;21.45;;;11.10;74.60;;;;;;4956729;28;20042;-87
2022/03/11 04:06:35;;;;;;;1999.90;999.90;;;11.10;74.60;;;;;;4971091;28;20037;-87
2022/03/11 04:09:03;;;;;;;22.02;21.02;;;11.00;74.60;;;;;;4953109;28;20055;-90
2022/03/11 04:11:29;;;;;;;21.88;20.88;;;11.00;74.70;;;;;;4952556;28;20468;-89
2022/03/11 04:13:55;;;;;;;22.52;21.52;;;11.10;74.80;;;;;;4954776;28;20039;-89
2022/03/11 04:16:21;;;;;;;21.48;20.48;;;11.00;74.70;;;;;;4936926;28;20042;-88
2022/03/11 04:18:47;;;;;;;22.33;21.23;;;11.10;74.80;;;;;;4972401;28;20026;-87
2022/03/11 04:21:14;;;;;;;23.13;22.02;;;11.10;74.60;;;;;;4941189;28;20041;-87
2022/03/11 04:23:41;;;;;;;1505.40;755.15;;;11.10;75.00;;;;;;4970528;28;20035;-88
2022/03/11 04:26:07;;;;;;;1505.78;755.50;;;11.10;74.50;;;;;;4970783;28;20023;-88
2022/03/11 04:28:33;;;;;;;1999.90;999.90;;;11.10;74.60;;;;;;4940430;28;20055;-89
2022/03/11 04:30:59;;;;;;;21.90;20.90;;;11.20;74.80;;;;;;4969360;28;20034;-89
2022/03/11 04:33:26;;;;;;;21.35;20.35;;;11.10;74.80;;;;;;4986252;28;20058;-89
2022/03/11 04:35:52;;;;;;;1505.78;755.50;;;11.10;74.80;;;;;;4939427;28;20062;-89
2022/03/11 04:38:18;;;;;;;1999.90;999.90;;;11.10;74.80;;;;;;4972474;28;20586;-87
2022/03/11 04:40:44;;;;;;;21.70;20.70;;;11.10;74.80;;;;;;4956027;28;20045;-88
2022/03/11 04:43:10;;;;;;;21.05;20.05;;;11.10;74.80;;;;;;4940000;28;20042;-88
2022/03/11 04:45:37;;;;;;;1505.50;755.25;;;11.10;74.80;;;;;;4954548;28;20496;-88
2022/03/11 04:48:04;;;;;;;21.88;20.83;;;11.10;74.80;;;;;;4972969;28;20050;-88
2022/03/11 04:50:30;;;;;;;22.50;21.48;;;11.10;74.70;;;;;;4971544;28;20034;-87
2022/03/11 04:52:56;;;;;;;21.35;20.35;;;11.10;74.80;;;;;;4954917;28;20043;-88
2022/03/11 04:55:22;;;;;;;1999.90;999.90;;;11.10;74.70;;;;;;4952858;28;20063;-89
2022/03/11 04:57:48;;;;;;;21.20;20.20;;;11.10;74.80;;;;;;4972270;28;20027;-89
2022/03/11 05:00:15;;;;;;;22.02;20.92;;;11.20;74.80;;;;;;4954885;28;20049;-87
2022/03/11 05:02:44;;;;;;;1999.90;999.90;;;11.20;74.70;;;;;;4955656;28;20039;-88
2022/03/11 05:05:11;;;;;;;22.10;21.00;;;11.20;74.70;;;;;;4955971;28;20035;-88
2022/03/11 05:07:38;;;;;;;1505.20;754.95;;;11.20;74.80;;;;;;4955841;28;20483;-87
2022/03/11 05:10:11;;;;;;;1999.90;999.90;;;11.20;75.00;;;;;;4953849;28;20031;-87
2022/03/11 05:12:37;;;;;;;21.65;20.55;;;11.20;74.90;;;;;;4969788;28;20037;-88
2022/03/11 05:15:05;;;;;;;1505.20;754.95;;;11.30;74.90;;;;;;4954755;28;20046;-87
2022/03/11 05:17:31;;;;;;;1999.90;999.90;;;11.30;74.90;;;;;;4955163;28;20039;-89
2022/03/11 05:19:57;;;;;;;1999.90;999.90;;;11.30;74.80;;;;;;4939754;28;20396;-87
2022/03/11 05:22:24;;;;;;;1999.90;999.90;;;11.30;74.80;;;;;;4955762;28;20031;-89
2022/03/11 05:24:50;;;;;;;1999.90;999.90;;;11.30;74.80;;;;;;4973356;28;20039;-89
2022/03/11 05:27:16;;;;;;;1999.90;999.90;;;11.30;74.80;;;;;;4958832;28;20035;-89
2022/03/11 05:29:42;;;;;;;1505.30;755.05;;;11.40;74.90;;;;;;4958860;28;20042;-88
2022/03/11 05:32:09;;;;;;;1505.45;755.17;;;11.40;74.80;;;;;;4958715;28;20214;-87
2022/03/11 05:34:38;;;;;;;1999.90;999.90;;;11.40;74.70;;;;;;4975717;28;20396;-87
2022/03/11 05:37:05;;;;;;;1999.90;999.90;;;11.40;74.70;;;;;;4974228;28;20027;-87
2022/03/11 05:39:32;;;;;;;1999.90;999.90;;;11.40;74.70;;;;;;4973945;28;20043;-88
2022/03/11 05:41:58;;;;;;;1999.90;999.90;;;11.50;74.90;;;;;;4974205;28;20399;-89
2022/03/11 05:44:24;;;;;;;21.33;20.33;;;11.40;74.70;;;;;;4973769;28;20472;-87
2022/03/11 05:46:52;;;;;;;1999.90;999.90;;;11.50;74.70;;;;;;4974306;28;20027;-88
2022/03/11 05:49:18;;;;;;;1505.40;755.15;;;11.50;74.60;;;;;;4973169;28;20373;-87
2022/03/11 05:51:45;;;;;;;21.88;20.88;;;11.60;74.60;;;;;;4954041;28;20039;-88
2022/03/11 05:54:11;;;;;;;1999.90;999.90;;;11.60;74.40;;;;;;4974744;28;20045;-87
2022/03/11 05:56:37;;;;;;;1999.90;999.90;;;11.70;74.40;;;;;;4954509;29;20400;-90
2022/03/11 05:59:04;;;;;;;1999.90;999.90;;;11.70;74.20;;;;;;4974242;28;20035;-87
2022/03/11 06:01:31;;;;;;;1999.90;999.90;;;11.70;74.20;;;;;;4958596;28;20089;-88
2022/03/11 06:03:57;;;;;;;1999.90;999.90;;;11.70;74.90;;;;;;4958180;28;20043;-88
2022/03/11 06:06:23;;;;;;;1999.90;999.90;;;11.80;74.10;;;;;;4958321;28;20392;-88
2022/03/11 06:08:50;;;;;;;1999.90;999.90;;;11.80;74.10;;;;;;4974713;28;20062;-87
2022/03/11 06:11:16;;;;;;;1999.90;999.90;;;11.80;74.10;;;;;;4958168;28;20031;-88
2022/03/11 06:13:42;;;;;;;1999.90;999.90;;;11.80;74.00;;;;;;4974641;28;20035;-88
2022/03/11 06:16:08;;;;;;;1999.90;999.90;;;11.80;74.00;;;;;;4973983;28;20038;-88
2022/03/11 06:18:34;;;;;;;1999.90;999.90;;;11.90;74.10;;;;;;4958300;28;20395;-88
2022/03/11 06:21:00;;;;;;;1999.90;999.90;;;11.90;74.10;;;;;;4974318;28;21559;-88
2022/03/11 06:23:26;;;;;;;1999.90;999.90;;;11.90;74.00;;;;;;4974531;28;20043;-90
2022/03/11 06:25:52;;;;;;;1999.90;999.90;;;11.90;74.00;;;;;;4974899;28;20027;-88
2022/03/11 06:28:18;;;;;;;1999.90;999.90;;;11.90;74.00;;;;;;4942512;28;20420;-89
2022/03/11 06:30:46;;;;;;;1999.90;999.90;;;11.90;74.00;;;;;;4974444;28;20510;-88
2022/03/11 06:33:12;;;;;;;1999.90;999.90;;;11.90;74.00;;;;;;4942775;28;20035;-89
2022/03/11 06:35:38;;;;;;;1999.90;999.90;;;11.90;74.00;;;;;;4972813;28;20042;-88
2022/03/11 06:38:04;;;;;;;1999.90;999.90;;;11.90;74.00;;;;;;4957647;28;20046;-88
2022/03/11 06:40:31;;;;;;;1999.90;999.90;;;11.90;74.00;;;;;;4958212;28;20042;-88
2022/03/11 06:42:57;;;;;;;1999.90;999.90;;;11.90;74.00;;;;;;4957900;28;20069;-88
2022/03/11 06:45:23;;;;;;;1999.90;999.90;;;11.90;73.90;;;;;;4973334;28;20082;-88
2022/03/11 06:47:49;;;;;;;1999.90;999.90;;;11.90;74.00;;;;;;4957437;28;20054;-89
2022/03/11 06:50:16;;;;;;;1999.90;999.90;;;11.90;73.90;;;;;;4966377;28;20027;-88
2022/03/11 06:52:43;;;;;;;1999.90;999.90;;;11.90;73.90;;;;;;4974072;28;20031;-87
2022/03/11 06:55:09;;;;;;;1999.90;999.90;;;11.90;73.90;;;;;;4974539;28;20058;-80
2022/03/11 06:57:35;;;;;;;1999.90;999.90;;;12.00;73.90;;;;;;4954113;28;21447;-83
2022/03/11 07:00:03;;;;;;;1999.90;999.90;;;12.00;73.80;;;;;;4955258;28;20054;-81
2022/03/11 07:02:30;;;;;;;1999.90;999.90;;;12.00;73.80;;;;;;4974361;28;20039;-83
2022/03/11 07:04:56;;;;;;;1999.90;999.90;;;12.00;73.80;;;;;;4972488;28;20353;-82
2022/03/11 07:07:22;;;;;;;1999.90;999.90;;;12.00;73.70;;;;;;4973054;28;20031;-82
2022/03/11 07:09:48;;;;;;;1999.90;999.90;;;12.00;73.60;;;;;;4970460;28;20046;-83
2022/03/11 07:12:14;;;;;;;1999.90;999.90;;;12.10;73.60;;;;;;4970839;28;20035;-85
2022/03/11 07:14:41;;;;;;;1999.90;999.90;;;12.10;73.60;;;;;;4938834;28;20035;-85
2022/03/11 07:17:07;;;;;;;1999.90;999.90;;;12.10;73.60;;;;;;4966363;28;20392;-88
2022/03/11 07:19:34;;;;;;;1999.90;999.90;;;12.10;73.50;;;;;;4956288;28;20037;-86
2022/03/11 07:22:02;;;;;;;1999.90;999.90;;;12.10;73.50;;;;;;4971025;28;20031;-86
2022/03/11 07:24:28;;;;;;;1999.90;999.90;;;12.10;73.50;;;;;;4971428;28;20031;-82
2022/03/11 07:26:55;;;;;;;1999.90;999.90;;;12.10;73.40;;;;;;4969544;28;20043;-84
2022/03/11 07:29:21;;;;;;;1999.90;999.90;;;12.10;73.30;;;;;;4971446;28;20039;-82
2022/03/11 07:31:47;;;;;;;1999.90;999.90;;;12.20;73.30;;;;;;4955475;28;20027;-84
2022/03/11 07:34:13;;;;;;;1999.90;999.90;;;12.30;73.20;;;;;;4970485;28;20488;-85
2022/03/11 07:36:39;;;;;;;1999.90;999.90;;;12.30;73.20;;;;;;4954933;28;20033;-89
2022/03/11 07:39:06;;;;;;;1999.90;999.90;;;12.30;73.10;;;;;;4967896;28;20055;-85
2022/03/11 07:41:33;;;;;;;1999.90;999.90;;;12.30;73.00;;;;;;4953631;28;20030;-84
2022/03/11 07:43:59;;;;;;;1999.90;999.90;;;12.40;72.90;;;;;;4954762;28;20046;-85
2022/03/11 07:46:27;;;;;;;1999.90;999.90;;;12.40;72.80;;;;;;4956182;28;20042;-84
2022/03/11 07:48:54;;;;;;;1999.90;999.90;;;12.40;72.80;;;;;;4952588;28;20062;-88
2022/03/11 07:51:20;;;;;;;1999.90;999.90;;;12.40;72.80;;;;;;4937372;28;20046;-88
2022/03/11 07:53:46;;;;;;;1999.90;999.90;;;12.40;72.80;;;;;;4949792;28;20050;-85
2022/03/11 07:56:14;;;;;;;1999.90;999.90;;;12.40;72.80;;;;;;4968538;28;20039;-86
2022/03/11 07:58:41;;;;;;;1999.90;999.90;;;12.40;72.70;;;;;;4955593;28;20031;-84
2022/03/11 08:01:08;;;;;;;1999.90;999.90;;;12.40;72.70;;;;;;4971655;28;20031;-87
2022/03/11 08:03:35;;;;;;;1999.90;999.90;;;12.40;72.70;;;;;;4952926;28;20032;-81
2022/03/11 08:06:01;;;;;;;1999.90;999.90;;;12.40;72.70;;;;;;4969367;28;20039;-86
2022/03/11 08:08:27;;;;;;;1999.90;999.90;;;12.50;72.70;;;;;;4971074;28;20047;-86
2022/03/11 08:10:54;;;;;;;1999.90;999.90;;;12.50;72.70;;;;;;4950273;28;20039;-83
2022/03/11 08:13:21;;;;;;;1999.90;999.90;;;12.50;73.40;;;;;;4956657;28;20042;-84
2022/03/11 08:15:47;;;;;;;1999.90;999.90;;;12.50;72.50;;;;;;4952668;28;20039;-88
2022/03/11 08:18:13;;;;;;;1999.90;999.90;;;12.60;72.60;;;;;;4953395;28;20030;-84
2022/03/11 08:20:39;;;;;;;1999.90;999.90;;;12.50;72.50;;;;;;4968890;28;20369;-82
2022/03/11 08:23:06;;;;;;;1999.90;999.90;;;12.60;72.60;;;;;;4954916;28;20039;-84
2022/03/11 08:25:32;;;;;;;1999.90;999.90;;;12.60;72.60;;;;;;4940283;28;20054;-82
2022/03/11 08:27:58;;;;;;;1999.90;999.90;;;12.60;72.50;;;;;;4968651;28;20507;-83
2022/03/11 08:30:25;;;;;;;1999.90;999.90;;;12.70;72.40;;;;;;4951466;28;20104;-82
2022/03/11 08:32:52;;;;;;;1999.90;999.90;;;12.70;72.40;;;;;;4974839;28;20475;-88
2022/03/11 08:35:18;;;;;;;1999.90;999.90;;;12.80;72.40;;;;;;4970192;28;20034;-84
2022/03/11 08:37:45;;;;;;;1999.90;999.90;;;12.80;72.20;;;;;;4971191;28;20023;-87
2022/03/11 08:40:11;;;;;;;1999.90;999.90;;;12.80;72.20;;;;;;4938556;28;20070;-86
2022/03/11 08:42:38;;;;;;;1999.90;999.90;;;12.90;72.20;;;;;;4969380;28;20038;-85
2022/03/11 08:45:05;;;;;;;1999.90;999.90;;;12.90;72.10;;;;;;4970015;28;20034;-87
2022/03/11 08:47:31;;;;;;;1999.90;999.90;;;12.90;72.00;;;;;;4954743;28;20035;-85
2022/03/11 08:49:57;;;;;;;1999.90;999.90;;;12.90;72.00;;;;;;4953278;28;20047;-84
2022/03/11 08:52:26;;;;;;;1999.90;999.90;;;13.00;72.00;;;;;;4967062;28;20034;-82
2022/03/11 08:54:52;;;;;;;1999.90;999.90;;;13.00;71.90;;;;;;4967973;28;20035;-87
2022/03/11 08:57:19;;;;;;;1999.90;999.90;;;13.00;71.80;;;;;;4968824;28;20038;-87
2022/03/11 08:59:45;;;;;;;1999.90;999.90;;;13.00;71.80;;;;;;4968085;28;20042;-84
2022/03/11 09:02:13;;;;;;;1999.90;999.90;;;13.00;71.80;;;;;;4968265;28;20023;-83
2022/03/11 09:04:39;;;;;;;1999.90;999.90;;;13.00;71.70;;;;;;4955843;28;20026;-83
2022/03/11 09:07:05;;;;;;;1999.90;999.90;;;13.10;71.80;;;;;;4971311;28;20038;-85
2022/03/11 09:09:32;;;;;;;1999.90;999.90;;;13.10;71.80;;;;;;4968459;28;20488;-82
2022/03/11 09:12:02;;;;;;;1999.90;999.90;;;13.10;71.70;;;;;;4970502;28;20039;-88
2022/03/11 09:14:28;;;;;;;1999.90;999.90;;;13.10;71.70;;;;;;4951871;28;20046;-88
2022/03/11 09:16:54;;;;;;;1999.90;999.90;;;13.10;71.70;;;;;;4969363;28;20035;-88
2022/03/11 09:19:20;;;;;;;1999.90;999.90;;;13.10;71.70;;;;;;4971536;28;20030;-88
2022/03/11 09:21:46;;;;;;;1999.90;999.90;;;13.10;71.80;;;;;;4970422;28;20023;-85
2022/03/11 09:24:12;;;;;;;1999.90;999.90;;;13.10;71.80;;;;;;4971283;28;20031;-88
2022/03/11 09:26:39;;;;;;;1999.90;999.90;;;13.10;71.90;;;;;;4968832;28;20054;-88
2022/03/11 09:29:06;;;;;;;1999.90;999.90;;;13.10;72.00;;;;;;4969770;28;20476;-85
2022/03/11 09:31:34;;;;;;;1999.90;999.90;;;13.00;72.10;;;;;;4966320;28;20034;-87
2022/03/11 09:34:00;;;;;;;1999.90;999.90;;;13.00;72.20;;;;;;4969531;28;20376;-90
2022/03/11 09:36:26;;;;;;;1999.90;999.90;;;12.90;72.20;;;;;;4969046;28;20031;-88
2022/03/11 09:38:52;;;;;;;1999.90;999.90;;;12.90;72.30;;;;;;4974544;28;20062;-89
2022/03/11 09:41:19;;;;;;;1999.90;999.90;;;12.90;72.50;;;;;;4970775;28;20042;-89
2022/03/11 09:43:46;;;;;;;1999.90;999.90;;;12.80;72.50;;;;;;4955573;28;20415;-90
2022/03/11 09:46:13;;;;;;;1999.90;999.90;;;12.80;72.70;;;;;;4955331;28;20412;-88
2022/03/11 09:48:40;;;;;;;1999.90;999.90;;;12.80;72.70;;;;;;4969209;28;20034;-89
2022/03/11 09:51:06;;;;;;;1999.90;999.90;;;12.80;72.70;;;;;;4968322;28;20035;-88
2022/03/11 09:53:32;;;;;;;1999.90;999.90;;;12.70;72.80;;;;;;4968610;28;20042;-88
2022/03/11 09:55:58;;;;;;;1999.90;999.90;;;12.70;73.70;;;;;;4938135;28;20054;-87
2022/03/11 09:58:24;;;;;;;1999.90;999.90;;;12.70;72.90;;;;;;4954656;28;20034;-85
2022/03/11 10:00:50;;;;;;;1999.90;999.90;;;12.70;73.00;;;;;;4969320;28;20043;-86
2022/03/11 10:03:17;;;;;;;1999.90;999.90;;;12.70;73.10;;;;;;4969922;28;20380;-86
2022/03/11 10:05:52;;;;;;;1999.90;999.90;;;12.70;73.10;;;;;;4966786;28;20483;-90
2022/03/11 10:08:44;;;;;;;1999.90;999.90;;;12.70;73.20;;;;;;4952664;28;20400;-90
2022/03/11 10:11:24;;;;;;;1999.90;999.90;;;12.60;73.20;;;;;;4986923;28;20032;-86
2022/03/11 10:13:51;;;;;;;1999.90;999.90;;;12.60;73.20;;;;;;4933689;28;20039;-91
2022/03/11 10:16:26;;;;;;;1999.90;999.90;;;12.60;73.30;;;;;;4940220;28;20035;-89
2022/03/11 10:18:57;;;;;;;1999.90;999.90;;;12.60;73.30;;;;;;4972696;28;20483;-73
2022/03/11 10:21:32;;;;;;;1999.90;999.90;;;12.60;73.30;;;;;;4970618;28;20027;-86
2022/03/11 10:23:59;;;;;;;1999.90;999.90;;;12.70;73.30;;;;;;4956150;28;20290;-86
2022/03/11 10:26:48;;;;;;;1999.90;999.90;;;12.80;73.20;;;;;;4957581;28;20043;-85
2022/03/11 10:29:25;;;;;;;1999.90;999.90;;;12.80;73.20;;;;;;4959578;28;20084;-84
2022/03/11 10:31:52;;;;;;;1999.90;999.90;;;12.90;73.10;;;;;;4941630;28;20023;-85
2022/03/11 10:34:31;;;;;;;1999.90;999.90;;;12.90;73.10;;;;;;4970448;28;20050;-85
2022/03/11 10:37:01;;;;;;;1999.90;999.90;;;12.90;73.10;;;;;;4971625;28;20033;-87
2022/03/11 10:39:32;;;;;;;1999.90;999.90;;;12.90;73.10;;;;;;4969980;28;20051;-89
2022/03/11 10:42:18;;;;;;;1999.90;999.90;;;12.90;73.00;;;;;;4955820;28;20053;-91
2022/03/11 10:45:04;;;;;;;1999.90;999.90;;;12.90;73.10;;;;;;4972939;28;20031;-88
2022/03/11 10:47:32;;;;;;;1999.90;999.90;;;12.90;73.10;;;;;;4972587;28;20392;-90
2022/03/11 10:50:01;;;;;;;1999.90;999.90;;;12.90;73.20;;;;;;4972652;28;20047;-90
2022/03/11 10:52:36;;;;;;;1999.90;999.90;;;12.90;73.20;;;;;;4957384;28;20031;-87
2022/03/11 10:55:23;;;;;;;1999.90;999.90;;;12.80;73.30;;;;;;4972014;28;20041;-89
2022/03/11 10:57:52;;;;;;;1999.90;999.90;;;12.90;73.30;;;;;;4973065;28;20041;-89
2022/03/11 11:00:44;;;;;;;1999.90;999.90;;;12.90;73.20;;;;;;4943650;28;20423;-89
2022/03/11 11:03:12;;;;;;;1999.90;999.90;;;12.90;73.20;;;;;;4971764;28;20089;-89
2022/03/11 11:05:38;;;;;;;1999.90;999.90;;;13.00;73.10;;;;;;4970464;28;20480;-87
2022/03/11 11:08:05;;;;;;;1999.90;999.90;;;13.00;73.10;;;;;;4973094;28;20503;-87
2022/03/11 11:10:33;;;;;;;1999.90;999.90;;;13.00;73.00;;;;;;4957386;28;20039;-86
2022/03/11 11:12:59;;;;;;;1999.90;999.90;;;13.10;73.10;;;;;;4940141;28;20055;-89
2022/03/11 11:15:26;;;;;;;1999.90;999.90;;;13.10;73.70;;;;;;4972963;28;20027;-86
2022/03/11 11:17:52;;;;;;;1999.90;999.90;;;13.10;72.90;;;;;;4972664;28;20472;-86
2022/03/11 11:20:25;;;;;;;1999.90;999.90;;;13.20;73.00;;;;;;4956703;28;20373;-84
2022/03/11 11:22:53;;;;;;;1999.90;999.90;;;13.30;73.00;;;;;;4955627;28;20046;-86
2022/03/11 11:25:21;;;;;;;1999.90;999.90;;;13.30;72.90;;;;;;4955697;28;20038;-84
2022/03/11 11:27:47;;;;;;;1999.90;999.90;;;13.40;72.80;;;;;;4956962;28;20483;-83
2022/03/11 11:30:20;;;;;;;1999.90;999.90;;;13.50;72.80;;;;;;4971009;28;20046;-86
2022/03/11 11:32:48;;;;;;;1999.90;999.90;;;13.50;72.80;;;;;;4954571;28;20043;-85
2022/03/11 11:35:26;;;;;;;1999.90;999.90;;;13.50;72.70;;;;;;4973428;28;20038;-85
2022/03/11 11:37:53;;;;;;;1999.90;999.90;;;13.50;72.80;;;;;;4974850;28;20050;-88
2022/03/11 11:40:21;;;;;;;1999.90;999.90;;;13.50;72.80;;;;;;4971539;28;20035;-89
2022/03/11 11:43:12;;;;;;;1999.90;999.90;;;13.50;72.80;;;;;;4973412;28;20049;-88
2022/03/11 11:45:46;;;;;;;1999.90;999.90;;;13.50;72.90;;;;;;4973102;28;20035;-91
2022/03/11 11:48:31;;;;;;;1999.90;999.90;;;13.50;72.90;;;;;;4942499;28;20039;-90
2022/03/11 11:51:02;;;;;;;1999.90;999.90;;;13.40;73.00;;;;;;4976411;28;20435;-89
2022/03/11 11:53:41;;;;;;;1999.90;999.90;;;13.40;72.90;;;;;;4972629;28;20392;-89
2022/03/11 11:56:39;;;;;;;1999.90;999.90;;;13.40;73.00;;;;;;4971590;28;20053;-90
2022/03/11 11:59:18;;;;;;;1999.90;999.90;;;13.40;73.00;;;;;;5000516;28;20054;-90
2022/03/11 12:01:46;;;;;;;1999.90;999.90;;;13.40;72.90;;;;;;4968068;28;20031;-89
2022/03/11 12:04:34;;;;;;;1999.90;999.90;;;13.50;72.90;;;;;;4957556;28;20472;-90